createdAt,value
2019-04-10T00:01:36.113Z,9.20
2019-04-10T00:04:07.054Z,9.00
2019-04-10T00:06:37.720Z,9.20
2019-04-10T00:09:08.483Z,9.10
2019-04-10T00:11:56.989Z,9.20
2019-04-10T00:14:26.764Z,9.20
2019-04-10T00:16:56.548Z,9.10
2019-04-10T00:19:26.710Z,9.10
2019-04-10T00:21:56.519Z,9.00
2019-04-10T00:24:28.159Z,9.10
2019-04-10T00:26:58.492Z,9.10
2019-04-10T00:29:28.107Z,9.00
2019-04-10T00:32:07.724Z,9.00
2019-04-10T00:34:37.929Z,9.10
2019-04-10T00:37:19.922Z,9.10
2019-04-10T00:39:38.986Z,9.10
2019-04-10T00:42:08.577Z,9.20
2019-04-10T00:44:37.970Z,9.10
2019-04-10T00:47:07.308Z,9.10
2019-04-10T00:49:37.714Z,9.00
2019-04-10T00:52:07.987Z,9.00
2019-04-10T00:54:37.740Z,9.00
2019-04-10T00:57:07.414Z,9.00
2019-04-10T00:59:36.954Z,9.00
2019-04-10T01:02:07.978Z,9.00
2019-04-10T01:04:38.198Z,8.90
2019-04-10T01:07:08.616Z,9.00
2019-04-10T01:09:39.591Z,8.90
2019-04-10T01:12:09.843Z,8.80
2019-04-10T01:14:40.104Z,8.90
2019-04-10T01:17:09.969Z,8.90
2019-04-10T01:19:39.763Z,8.90
2019-04-10T01:22:09.360Z,8.90
2019-04-10T01:24:38.809Z,9.00
2019-04-10T01:27:08.308Z,9.00
2019-04-10T01:29:37.875Z,8.90
2019-04-10T01:32:07.775Z,8.90
2019-04-10T01:34:37.937Z,8.90
2019-04-10T01:37:08.836Z,8.80
2019-04-10T01:39:38.417Z,8.80
2019-04-10T01:42:08.189Z,8.80
2019-04-10T01:44:38.643Z,8.80
2019-04-10T01:47:08.342Z,8.80
2019-04-10T01:49:38.029Z,8.70
2019-04-10T01:52:08.825Z,8.70
2019-04-10T01:54:39.570Z,8.80
2019-04-10T01:57:10.248Z,8.80
2019-04-10T01:59:40.927Z,8.80
2019-04-10T02:02:17.702Z,8.70
2019-04-10T02:04:47.945Z,8.60
2019-04-10T02:07:18.071Z,8.70
2019-04-10T02:09:47.759Z,8.70
2019-04-10T02:12:18.710Z,8.60
2019-04-10T02:14:57.529Z,8.60
2019-04-10T02:17:26.928Z,8.70
2019-04-10T02:19:56.819Z,8.70
2019-04-10T02:22:26.629Z,8.70
2019-04-10T02:24:56.207Z,8.70
2019-04-10T02:27:26.629Z,8.70
2019-04-10T02:29:56.487Z,8.70
2019-04-10T02:32:26.578Z,8.60
2019-04-10T02:34:57.549Z,8.60
2019-04-10T02:37:28.156Z,8.60
2019-04-10T02:40:09.800Z,8.60
2019-04-10T02:42:40.707Z,8.50
2019-04-10T02:45:10.289Z,8.60
2019-04-10T02:47:41.211Z,8.60
2019-04-10T02:50:12.476Z,8.60
2019-04-10T02:52:43.290Z,8.90
2019-04-10T02:55:14.422Z,8.90
2019-04-10T02:57:45.830Z,8.80
2019-04-10T03:00:15.748Z,8.80
2019-04-10T03:02:45.458Z,8.80
2019-04-10T03:05:15.946Z,8.80
2019-04-10T03:07:48.145Z,8.70
2019-04-10T03:10:27.735Z,8.70
2019-04-10T03:12:49.811Z,8.70
2019-04-10T03:15:19.972Z,8.70
2019-04-10T03:17:50.426Z,8.70
2019-04-10T03:20:20.479Z,8.70
2019-04-10T03:22:51.353Z,8.70
2019-04-10T03:25:21.270Z,8.70
2019-04-10T03:27:51.138Z,8.70
2019-04-10T03:30:22.926Z,8.70
2019-04-10T03:33:14.289Z,8.70
2019-04-10T03:35:45.208Z,8.70
2019-04-10T03:38:14.825Z,8.60
2019-04-10T03:40:44.564Z,8.60
2019-04-10T03:43:14.034Z,8.60
2019-04-10T03:45:44.494Z,8.60
2019-04-10T03:48:14.216Z,8.50
2019-04-10T03:50:43.994Z,8.50
2019-04-10T03:53:14.020Z,8.50
2019-04-10T03:55:43.809Z,8.50
2019-04-10T03:58:13.543Z,8.50
2019-04-10T04:00:43.343Z,8.50
2019-04-10T04:03:13.281Z,8.50
2019-04-10T04:05:42.957Z,8.50
2019-04-10T04:08:13.088Z,8.50
2019-04-10T04:10:42.912Z,8.50
2019-04-10T04:13:12.531Z,8.60
2019-04-10T04:15:42.240Z,8.60
2019-04-10T04:18:12.914Z,8.60
2019-04-10T04:20:43.332Z,8.60
2019-04-10T04:23:13.787Z,8.60
2019-04-10T04:25:43.779Z,8.60
2019-04-10T04:28:13.397Z,8.60
2019-04-10T04:30:42.588Z,8.60
2019-04-10T04:33:15.448Z,8.60
2019-04-10T04:35:45.939Z,8.60
2019-04-10T04:38:16.375Z,8.60
2019-04-10T04:40:46.759Z,8.60
2019-04-10T04:43:16.685Z,8.60
2019-04-10T04:45:46.937Z,8.60
2019-04-10T04:48:21.953Z,8.60
2019-04-10T04:50:54.613Z,8.60
2019-04-10T04:53:24.219Z,8.60
2019-04-10T04:55:57.571Z,8.60
2019-04-10T04:58:28.447Z,8.60
2019-04-10T05:01:02.030Z,8.50
2019-04-10T05:03:35.407Z,8.60
2019-04-10T05:06:05.929Z,8.60
2019-04-10T05:08:35.496Z,8.60
2019-04-10T05:11:06.319Z,8.70
2019-04-10T05:13:36.206Z,8.70
2019-04-10T05:16:06.118Z,8.70
2019-04-10T05:18:35.959Z,8.70
2019-04-10T05:21:05.671Z,8.80
2019-04-10T05:23:35.322Z,8.80
2019-04-10T05:26:05.081Z,8.80
2019-04-10T05:28:38.867Z,8.80
2019-04-10T05:34:20.317Z,8.80
2019-04-10T05:36:52.875Z,8.80
2019-04-10T05:39:39.177Z,8.80
2019-04-10T05:41:59.848Z,8.80
2019-04-10T05:44:29.793Z,8.80
2019-04-10T05:47:03.278Z,8.80
2019-04-10T05:49:35.157Z,8.80
2019-04-10T05:52:06.127Z,8.70
2019-04-10T05:54:42.486Z,8.80
2019-04-10T05:57:18.459Z,8.90
2019-04-10T05:59:52.963Z,9.00
2019-04-10T06:02:25.202Z,9.00
2019-04-10T06:04:56.542Z,9.00
2019-04-10T06:07:27.294Z,9.00
2019-04-10T06:10:01.986Z,9.00
2019-04-10T06:12:28.979Z,9.00
2019-04-10T06:14:58.819Z,9.10
2019-04-10T06:17:28.834Z,9.10
2019-04-10T06:20:00.709Z,9.10
2019-04-10T06:22:30.579Z,9.10
2019-04-10T06:25:00.743Z,9.10
2019-04-10T06:27:30.698Z,9.10
2019-04-10T06:30:01.743Z,9.20
2019-04-10T06:32:31.733Z,9.00
2019-04-10T06:35:01.891Z,8.90
2019-04-10T06:37:32.530Z,9.10
2019-04-10T06:40:10.695Z,9.10
2019-04-10T06:42:44.784Z,9.10
2019-04-10T06:45:05.793Z,9.10
2019-04-10T06:47:36.526Z,9.10
2019-04-10T06:50:07.475Z,9.20
2019-04-10T06:52:37.294Z,9.20
2019-04-10T06:55:07.781Z,9.10
2019-04-10T06:57:46.816Z,9.20
2019-04-10T07:00:13.678Z,9.30
2019-04-10T07:02:44.242Z,9.30
2019-04-10T07:05:17.073Z,9.40
2019-04-10T07:07:52.143Z,9.40
2019-04-10T07:10:48.003Z,9.50
2019-04-10T07:13:10.275Z,9.50
2019-04-10T07:15:42.155Z,9.60
2019-04-10T07:18:14.458Z,9.50
2019-04-10T07:20:42.087Z,9.60
2019-04-10T07:23:14.133Z,9.60
2019-04-10T07:25:45.379Z,9.60
2019-04-10T07:28:13.809Z,9.60
2019-04-10T07:30:43.539Z,9.60
2019-04-10T07:33:16.539Z,9.70
2019-04-10T07:35:44.413Z,9.80
2019-04-10T07:38:14.018Z,9.90
2019-04-10T07:40:43.472Z,10.10
2019-04-10T07:43:13.336Z,10.20
2019-04-10T07:45:43.247Z,10.20
2019-04-10T07:48:16.381Z,10.30
2019-04-10T07:50:47.529Z,10.10
2019-04-10T07:53:17.651Z,10.20
2019-04-10T07:55:58.425Z,10.30
2019-04-10T07:58:19.400Z,10.30
2019-04-10T08:00:49.822Z,10.40
2019-04-10T08:03:19.506Z,10.50
2019-04-10T08:05:50.187Z,10.30
2019-04-10T08:08:19.756Z,10.50
2019-04-10T08:10:49.215Z,10.50
2019-04-10T08:13:18.819Z,10.60
2019-04-10T08:15:48.385Z,10.60
2019-04-10T08:18:18.869Z,10.60
2019-04-10T08:20:48.865Z,10.60
2019-04-10T08:23:19.639Z,10.70
2019-04-10T08:25:49.604Z,10.70
2019-04-10T08:28:19.846Z,10.70
2019-04-10T08:30:50.479Z,10.70
2019-04-10T08:33:20.183Z,10.70
2019-04-10T08:35:49.825Z,10.70
2019-04-10T08:38:19.895Z,10.80
2019-04-10T08:40:54.485Z,10.90
2019-04-10T08:43:27.840Z,10.90
2019-04-10T08:46:03.586Z,10.90
2019-04-10T08:48:33.065Z,10.90
2019-04-10T08:51:03.214Z,10.90
2019-04-10T08:53:32.726Z,10.90
2019-04-10T08:56:04.482Z,10.90
2019-04-10T08:58:35.040Z,10.90
2019-04-10T09:01:05.228Z,10.90
2019-04-10T09:03:35.450Z,10.90
2019-04-10T09:06:07.075Z,10.90
2019-04-10T09:08:37.365Z,10.80
2019-04-10T09:11:07.245Z,10.80
2019-04-10T09:13:44.325Z,10.80
2019-04-10T09:16:15.246Z,10.70
2019-04-10T09:18:47.645Z,10.70
2019-04-10T09:21:17.612Z,10.70
2019-04-10T09:23:52.803Z,10.80
2019-04-10T09:26:20.197Z,10.70
2019-04-10T09:28:50.688Z,10.70
2019-04-10T09:31:23.841Z,10.80
2019-04-10T09:33:53.827Z,10.70
2019-04-10T09:36:43.792Z,10.70
2019-04-10T09:39:14.912Z,10.70
2019-04-10T09:41:45.988Z,10.70
2019-04-10T09:47:05.551Z,10.50
2019-04-10T09:49:40.326Z,10.50
2019-04-10T09:52:06.889Z,10.50
2019-04-10T09:54:36.491Z,10.40
2019-04-10T09:57:06.937Z,10.50
2019-04-10T09:59:39.600Z,10.40
2019-04-10T10:02:09.221Z,10.50
2019-04-10T10:04:39.745Z,10.50
2019-04-10T10:07:10.329Z,10.50
2019-04-10T10:09:40.962Z,10.50
2019-04-10T10:12:11.679Z,10.60
2019-04-10T10:14:42.255Z,10.60
2019-04-10T10:17:12.639Z,10.60
2019-04-10T10:19:42.630Z,10.60
2019-04-10T10:22:12.736Z,10.70
2019-04-10T10:24:42.670Z,10.70
2019-04-10T10:27:12.165Z,10.80
2019-04-10T10:29:41.946Z,10.90
2019-04-10T10:32:11.557Z,10.90
2019-04-10T10:34:41.088Z,10.80
2019-04-10T10:37:12.446Z,10.90
2019-04-10T10:39:43.494Z,10.90
2019-04-10T10:42:13.722Z,10.90
2019-04-10T10:44:46.381Z,10.90
2019-04-10T10:47:15.990Z,11.00
2019-04-10T10:49:45.893Z,11.10
2019-04-10T10:52:15.420Z,11.20
2019-04-10T10:54:45.248Z,11.20
2019-04-10T10:57:15.223Z,11.20
2019-04-10T10:59:45.979Z,11.20
2019-04-10T11:02:15.587Z,11.20
2019-04-10T11:04:45.404Z,11.20
2019-04-10T11:07:16.109Z,11.20
2019-04-10T11:09:45.753Z,11.30
2019-04-10T11:12:15.342Z,11.40
2019-04-10T11:14:45.583Z,11.50
2019-04-10T11:17:15.813Z,11.60
2019-04-10T11:19:46.876Z,11.60
2019-04-10T11:22:21.971Z,11.70
2019-04-10T11:24:49.386Z,11.60
2019-04-10T11:27:19.133Z,11.60
2019-04-10T11:29:48.793Z,11.60
2019-04-10T11:32:19.887Z,11.90
2019-04-10T11:34:50.698Z,11.90
2019-04-10T11:37:34.309Z,12.00
2019-04-10T11:39:56.228Z,12.00
2019-04-10T11:42:26.568Z,12.00
2019-04-10T11:44:56.922Z,12.00
2019-04-10T11:47:26.921Z,12.10
2019-04-10T11:49:57.646Z,12.10
2019-04-10T11:52:36.277Z,12.10
2019-04-10T11:57:32.469Z,12.20
2019-04-10T12:00:04.198Z,12.10
2019-04-10T12:02:34.508Z,12.20
2019-04-10T12:05:09.523Z,12.00
2019-04-10T12:08:03.367Z,11.90
2019-04-10T12:12:39.420Z,11.80
2019-04-10T12:15:10.159Z,11.80
2019-04-10T12:17:40.229Z,11.70
2019-04-10T12:20:13.195Z,11.70
2019-04-10T12:22:42.698Z,11.70
2019-04-10T12:25:12.882Z,11.70
2019-04-10T12:27:42.867Z,11.70
2019-04-10T12:30:13.223Z,11.70
2019-04-10T12:32:45.940Z,11.70
2019-04-10T12:35:17.100Z,11.70
2019-04-10T12:37:57.351Z,11.50
2019-04-10T12:40:19.502Z,11.70
2019-04-10T12:42:49.618Z,11.60
2019-04-10T12:45:20.062Z,11.40
2019-04-10T12:47:53.059Z,11.40
2019-04-10T12:50:29.268Z,11.50
2019-04-10T12:53:07.410Z,11.40
2019-04-10T12:55:38.837Z,11.30
2019-04-10T12:58:16.185Z,11.10
2019-04-10T13:00:44.605Z,11.10
2019-04-10T13:03:18.729Z,11.10
2019-04-10T13:05:49.329Z,11.10
2019-04-10T13:08:22.813Z,11.00
2019-04-10T13:10:51.809Z,10.90
2019-04-10T13:13:22.042Z,10.90
2019-04-10T13:15:52.124Z,10.80
2019-04-10T13:18:25.302Z,10.80
2019-04-10T13:20:55.777Z,10.90
2019-04-10T13:23:27.392Z,10.90
2019-04-10T13:26:06.344Z,10.90
2019-04-10T13:28:36.212Z,10.80
2019-04-10T13:31:06.231Z,10.80
2019-04-10T13:33:40.525Z,10.80
2019-04-10T13:38:48.541Z,10.80
2019-04-10T13:41:30.617Z,10.80
2019-04-10T13:44:00.513Z,10.80
2019-04-10T13:46:31.014Z,10.80
2019-04-10T13:49:01.862Z,10.80
2019-04-10T13:51:31.854Z,10.80
2019-04-10T13:54:06.132Z,10.80
2019-04-10T13:56:42.058Z,10.70
2019-04-10T13:59:13.818Z,10.70
2019-04-10T14:01:43.991Z,10.70
2019-04-10T14:04:16.645Z,10.70
2019-04-10T14:06:48.822Z,10.80
2019-04-10T14:09:34.771Z,10.70
2019-04-10T14:11:54.840Z,10.60
2019-04-10T14:14:24.908Z,10.60
2019-04-10T14:16:55.119Z,10.70
2019-04-10T14:19:28.137Z,10.70
2019-04-10T14:21:57.684Z,10.70
2019-04-10T14:24:38.298Z,10.60
2019-04-10T14:27:18.276Z,10.60
2019-04-10T14:29:49.074Z,10.70
2019-04-10T14:32:27.421Z,10.70
2019-04-10T14:34:58.639Z,10.70
2019-04-10T14:37:46.488Z,10.60
2019-04-10T14:40:17.897Z,10.50
2019-04-10T14:42:47.335Z,10.50
2019-04-10T14:45:20.116Z,10.50
2019-04-10T14:47:50.004Z,10.50
2019-04-10T14:50:19.868Z,10.50
2019-04-10T14:52:49.652Z,10.50
2019-04-10T14:55:31.982Z,10.50
2019-04-10T14:58:01.704Z,10.50
2019-04-10T15:00:39.167Z,10.40
2019-04-10T15:03:08.861Z,10.40
2019-04-10T15:05:48.621Z,10.40
2019-04-10T15:08:12.733Z,10.40
2019-04-10T15:10:42.133Z,10.30
2019-04-10T15:13:17.518Z,10.20
2019-04-10T15:15:44.901Z,10.20
2019-04-10T15:18:15.002Z,10.20
2019-04-10T15:20:45.308Z,10.20
2019-04-10T15:23:20.359Z,10.10
2019-04-10T15:25:47.121Z,10.00
2019-04-10T15:28:18.080Z,10.10
2019-04-10T15:30:48.361Z,10.10
2019-04-10T15:33:18.360Z,10.10
2019-04-10T15:35:48.137Z,10.10
2019-04-10T15:38:17.939Z,10.20
2019-04-10T15:40:48.057Z,10.30
2019-04-10T15:43:17.532Z,10.40
2019-04-10T15:45:48.144Z,10.30
2019-04-10T15:48:18.830Z,10.20
2019-04-10T15:50:49.695Z,10.20
2019-04-10T15:53:20.223Z,10.20
2019-04-10T15:55:49.738Z,10.10
2019-04-10T15:58:19.411Z,10.10
2019-04-10T16:00:50.211Z,10.00
2019-04-10T16:03:19.992Z,10.00
2019-04-10T16:05:50.173Z,10.00
2019-04-10T16:08:20.528Z,10.10
2019-04-10T16:11:05.684Z,10.10
2019-04-10T16:13:46.684Z,10.20
2019-04-10T16:16:44.429Z,10.10
2019-04-10T16:19:24.541Z,10.10
2019-04-10T16:21:54.312Z,10.00
2019-04-10T16:24:24.838Z,10.00
2019-04-10T16:26:54.236Z,9.90
2019-04-10T16:29:25.231Z,9.90
2019-04-10T16:31:56.601Z,9.90
2019-04-10T16:34:26.885Z,9.90
2019-04-10T16:36:57.642Z,9.90
2019-04-10T16:39:27.894Z,9.90
2019-04-10T16:41:57.937Z,9.80
2019-04-10T16:44:28.861Z,9.80
2019-04-10T16:46:58.689Z,9.80
2019-04-10T16:49:28.898Z,9.90
2019-04-10T16:51:58.874Z,9.80
2019-04-10T16:54:29.231Z,9.70
2019-04-10T16:56:59.010Z,9.70
2019-04-10T16:59:29.998Z,9.80
2019-04-10T17:02:00.802Z,9.80
2019-04-10T17:04:31.946Z,9.70
2019-04-10T17:07:02.996Z,9.80
2019-04-10T17:09:33.153Z,9.80
2019-04-10T17:12:04.056Z,9.80
2019-04-10T17:14:35.496Z,9.70
2019-04-10T17:17:12.421Z,9.70
2019-04-10T17:19:49.298Z,9.70
2019-04-10T17:22:14.449Z,9.70
2019-04-10T17:24:50.381Z,9.70
2019-04-10T17:27:21.601Z,9.70
2019-04-10T17:29:56.661Z,9.70
2019-04-10T17:32:31.144Z,9.50
2019-04-10T17:35:01.002Z,9.50
2019-04-10T17:37:31.869Z,9.50
2019-04-10T17:40:06.194Z,9.50
2019-04-10T17:42:38.165Z,9.50
2019-04-10T17:45:10.254Z,9.50
2019-04-10T17:47:45.132Z,9.50
2019-04-10T17:50:18.285Z,9.50
2019-04-10T17:52:49.284Z,9.50
2019-04-10T17:55:20.229Z,9.40
2019-04-10T17:57:53.114Z,9.40
2019-04-10T18:00:47.767Z,9.40
2019-04-10T18:03:18.902Z,9.30
2019-04-10T18:05:48.895Z,9.30
2019-04-10T18:08:18.935Z,9.20
2019-04-10T18:10:51.977Z,9.30
2019-04-10T18:13:24.488Z,9.20
2019-04-10T18:16:02.332Z,9.30
2019-04-10T18:18:35.784Z,9.20
2019-04-10T18:24:00.041Z,9.20
2019-04-10T18:26:29.996Z,9.20
2019-04-10T18:29:00.923Z,9.20
2019-04-10T18:31:32.977Z,9.20
2019-04-10T18:34:02.915Z,9.20
2019-04-10T18:36:33.284Z,9.20
2019-04-10T18:39:02.930Z,9.20
2019-04-10T18:41:32.187Z,9.20
2019-04-10T18:44:01.587Z,9.20
2019-04-10T18:46:31.228Z,9.20
2019-04-10T18:49:00.640Z,9.20
2019-04-10T18:51:30.454Z,9.20
2019-04-10T18:54:00.186Z,9.20
2019-04-10T18:56:33.473Z,9.20
2019-04-10T18:59:26.847Z,9.20
2019-04-10T19:02:19.965Z,9.20
2019-04-10T19:05:08.086Z,9.10
2019-04-10T19:07:38.431Z,9.10
2019-04-10T19:10:08.220Z,9.10
2019-04-10T19:12:39.089Z,9.10
2019-04-10T19:15:10.650Z,9.10
2019-04-10T19:17:41.818Z,9.10
2019-04-10T19:20:11.553Z,9.10
2019-04-10T19:22:55.060Z,9.10
2019-04-10T19:25:24.954Z,9.10
2019-04-10T19:27:54.274Z,9.00
2019-04-10T19:30:35.896Z,9.00
2019-04-10T19:33:05.827Z,9.00
2019-04-10T19:35:35.312Z,9.00
2019-04-10T19:38:05.175Z,9.00
2019-04-10T19:40:36.932Z,9.00
2019-04-10T19:43:06.343Z,9.20
2019-04-10T19:45:36.302Z,9.40
2019-04-10T19:48:06.842Z,9.30
2019-04-10T19:50:50.265Z,9.20
2019-04-10T19:53:19.960Z,9.20
2019-04-10T19:55:49.889Z,9.20
2019-04-10T19:58:19.634Z,9.10
2019-04-10T20:00:52.622Z,9.10
2019-04-10T20:03:22.277Z,9.10
2019-04-10T20:05:55.535Z,9.10
2019-04-10T20:08:29.492Z,9.00
2019-04-10T20:10:58.952Z,8.90
2019-04-10T20:13:28.457Z,8.90
2019-04-10T20:15:58.644Z,8.90
2019-04-10T20:18:28.561Z,8.90
2019-04-10T20:20:59.579Z,8.90
2019-04-10T20:23:29.973Z,8.90
2019-04-10T20:26:00.887Z,8.90
2019-04-10T20:28:31.001Z,8.80
2019-04-10T20:31:01.319Z,8.90
2019-04-10T20:33:31.180Z,8.90
2019-04-10T20:36:00.642Z,8.90
2019-04-10T20:38:32.014Z,8.90
2019-04-10T20:41:02.468Z,8.90
2019-04-10T20:43:33.670Z,8.90
2019-04-10T20:46:05.065Z,8.90
2019-04-10T20:48:36.280Z,8.90
2019-04-10T20:51:06.160Z,8.90
2019-04-10T20:53:36.113Z,8.80
2019-04-10T20:56:06.281Z,8.80
2019-04-10T20:58:40.258Z,8.80
2019-04-10T21:01:12.459Z,8.90
2019-04-10T21:03:42.607Z,8.90
2019-04-10T21:06:13.356Z,8.80
2019-04-10T21:08:44.555Z,8.80
2019-04-10T21:11:14.313Z,8.80
2019-04-10T21:13:47.352Z,8.80
2019-04-10T21:16:17.726Z,8.80
2019-04-10T21:18:48.291Z,8.80
2019-04-10T21:21:18.607Z,8.80
2019-04-10T21:23:48.711Z,8.80
2019-04-10T21:26:19.779Z,8.80
2019-04-10T21:28:49.212Z,8.80
2019-04-10T21:31:43.434Z,8.80
2019-04-10T21:34:28.526Z,8.80
2019-04-10T21:36:59.680Z,8.80
2019-04-10T21:39:29.763Z,8.80
2019-04-10T21:42:11.964Z,8.70
2019-04-10T21:44:31.051Z,8.70
2019-04-10T21:47:01.357Z,8.70
2019-04-10T21:49:32.058Z,8.70
2019-04-10T21:52:03.225Z,8.70
2019-04-10T21:54:32.749Z,8.70
2019-04-10T21:57:02.341Z,8.60
2019-04-10T21:59:31.904Z,8.60
2019-04-10T22:02:02.644Z,8.70
2019-04-10T22:04:32.924Z,8.60
2019-04-10T22:07:11.791Z,8.70
2019-04-10T22:10:03.589Z,8.60
2019-04-10T22:12:39.589Z,8.60
2019-04-10T22:15:10.660Z,8.60
2019-04-10T22:17:40.570Z,8.60
2019-04-10T22:20:10.389Z,8.60
2019-04-10T22:22:41.038Z,8.50
2019-04-10T22:25:11.045Z,8.50
2019-04-10T22:27:41.407Z,8.50
2019-04-10T22:30:12.455Z,8.40
2019-04-10T22:32:42.864Z,8.50
2019-04-10T22:35:13.123Z,8.40
2019-04-10T22:37:48.489Z,8.50
2019-04-10T22:40:56.051Z,8.50
2019-04-10T22:43:42.841Z,8.50
2019-04-10T22:46:13.094Z,8.40
2019-04-10T22:48:43.673Z,8.40
2019-04-10T22:53:53.497Z,8.40
2019-04-10T22:56:23.587Z,8.40
2019-04-10T22:58:53.477Z,8.40
2019-04-10T23:01:23.520Z,8.30
2019-04-10T23:03:53.055Z,8.40
2019-04-10T23:06:23.080Z,8.40
2019-04-10T23:08:52.688Z,8.40
2019-04-10T23:11:31.673Z,8.40
2019-04-10T23:13:54.941Z,8.40
2019-04-10T23:16:24.562Z,8.40
2019-04-10T23:18:54.373Z,8.40
2019-04-10T23:21:24.930Z,8.40
2019-04-10T23:23:54.994Z,8.40
2019-04-10T23:26:24.937Z,8.40
2019-04-10T23:28:55.849Z,8.40
2019-04-10T23:31:25.819Z,8.30
2019-04-10T23:33:55.145Z,8.30
2019-04-10T23:36:24.745Z,8.40
2019-04-10T23:38:55.326Z,8.30
2019-04-10T23:41:25.454Z,8.30
2019-04-10T23:43:55.804Z,8.30
2019-04-10T23:46:32.572Z,8.30
2019-04-10T23:49:03.951Z,8.30
2019-04-10T23:51:35.068Z,8.40
2019-04-10T23:54:05.017Z,8.40
2019-04-10T23:56:35.707Z,8.40
2019-04-10T23:59:06.633Z,8.40
